sensor_id;sensor_type;location;lat;lon;timestamp;temperature;humidity
18101;DHT22;9177;49.156;8.142;2022-09-01T00:01:25;26.30;96.70
18101;DHT22;9177;49.156;8.142;2022-09-01T00:03:53;26.30;96.70
18101;DHT22;9177;49.156;8.142;2022-09-01T00:06:23;26.30;96.80
18101;DHT22;9177;49.156;8.142;2022-09-01T00:08:50;26.30;96.80
18101;DHT22;9177;49.156;8.142;2022-09-01T00:11:19;26.30;96.70
18101;DHT22;9177;49.156;8.142;2022-09-01T00:13:47;26.30;96.70
18101;DHT22;9177;49.156;8.142;2022-09-01T00:16:15;26.30;96.70
18101;DHT22;9177;49.156;8.142;2022-09-01T00:18:46;26.30;96.70
18101;DHT22;9177;49.156;8.142;2022-09-01T00:21:16;26.30;97.00
18101;DHT22;9177;49.156;8.142;2022-09-01T00:23:45;26.30;96.60
18101;DHT22;9177;49.156;8.142;2022-09-01T00:26:17;26.30;96.60
18101;DHT22;9177;49.156;8.142;2022-09-01T00:28:44;26.30;96.70
18101;DHT22;9177;49.156;8.142;2022-09-01T00:31:11;26.30;96.70
18101;DHT22;9177;49.156;8.142;2022-09-01T00:33:43;26.30;96.70
18101;DHT22;9177;49.156;8.142;2022-09-01T00:36:18;26.30;96.60
18101;DHT22;9177;49.156;8.142;2022-09-01T00:38:47;26.30;96.70
18101;DHT22;9177;49.156;8.142;2022-09-01T00:41:15;26.30;96.60
18101;DHT22;9177;49.156;8.142;2022-09-01T00:43:45;26.30;96.60
18101;DHT22;9177;49.156;8.142;2022-09-01T00:46:15;26.30;96.60
18101;DHT22;9177;49.156;8.142;2022-09-01T00:48:42;26.30;96.50
18101;DHT22;9177;49.156;8.142;2022-09-01T00:51:10;26.30;96.50
18101;DHT22;9177;49.156;8.142;2022-09-01T00:53:40;26.30;96.60
18101;DHT22;9177;49.156;8.142;2022-09-01T00:56:18;26.30;96.60
18101;DHT22;9177;49.156;8.142;2022-09-01T00:58:44;26.30;96.50
18101;DHT22;9177;49.156;8.142;2022-09-01T01:01:11;26.30;96.50
18101;DHT22;9177;49.156;8.142;2022-09-01T01:03:39;26.30;96.40
18101;DHT22;9177;49.156;8.142;2022-09-01T01:06:08;26.30;96.50
18101;DHT22;9177;49.156;8.142;2022-09-01T01:08:37;26.20;96.50
18101;DHT22;9177;49.156;8.142;2022-09-01T01:11:08;26.30;96.40
18101;DHT22;9177;49.156;8.142;2022-09-01T01:13:49;26.30;96.50
18101;DHT22;9177;49.156;8.142;2022-09-01T01:16:17;26.20;96.40
18101;DHT22;9177;49.156;8.142;2022-09-01T01:18:44;26.20;96.40
18101;DHT22;9177;49.156;8.142;2022-09-01T01:21:17;26.30;96.40
18101;DHT22;9177;49.156;8.142;2022-09-01T01:24:08;26.20;96.30
18101;DHT22;9177;49.156;8.142;2022-09-01T01:26:41;26.20;96.40
18101;DHT22;9177;49.156;8.142;2022-09-01T01:29:09;26.20;96.40
18101;DHT22;9177;49.156;8.142;2022-09-01T01:31:36;26.20;96.70
18101;DHT22;9177;49.156;8.142;2022-09-01T01:34:03;26.20;96.40
18101;DHT22;9177;49.156;8.142;2022-09-01T01:36:34;26.20;96.40
18101;DHT22;9177;49.156;8.142;2022-09-01T01:39:05;26.20;96.40
18101;DHT22;9177;49.156;8.142;2022-09-01T01:41:33;26.20;96.40
18101;DHT22;9177;49.156;8.142;2022-09-01T01:44:03;26.20;96.40
18101;DHT22;9177;49.156;8.142;2022-09-01T01:46:31;26.20;96.40
18101;DHT22;9177;49.156;8.142;2022-09-01T01:48:59;26.20;96.40
18101;DHT22;9177;49.156;8.142;2022-09-01T01:51:28;26.20;96.50
18101;DHT22;9177;49.156;8.142;2022-09-01T01:53:56;26.20;96.40
18101;DHT22;9177;49.156;8.142;2022-09-01T01:56:24;26.20;96.40
18101;DHT22;9177;49.156;8.142;2022-09-01T01:58:53;26.20;96.40
18101;DHT22;9177;49.156;8.142;2022-09-01T02:01:25;26.20;96.50
18101;DHT22;9177;49.156;8.142;2022-09-01T02:03:53;26.20;96.50
18101;DHT22;9177;49.156;8.142;2022-09-01T02:06:22;26.20;96.40
18101;DHT22;9177;49.156;8.142;2022-09-01T02:08:50;26.20;96.40
18101;DHT22;9177;49.156;8.142;2022-09-01T02:11:21;26.20;96.40
18101;DHT22;9177;49.156;8.142;2022-09-01T02:13:50;26.20;96.80
18101;DHT22;9177;49.156;8.142;2022-09-01T02:16:24;26.20;96.40
18101;DHT22;9177;49.156;8.142;2022-09-01T02:18:52;26.20;96.40
18101;DHT22;9177;49.156;8.142;2022-09-01T02:21:22;26.20;96.30
18101;DHT22;9177;49.156;8.142;2022-09-01T02:23:50;26.20;96.40
18101;DHT22;9177;49.156;8.142;2022-09-01T02:26:25;26.20;96.40
18101;DHT22;9177;49.156;8.142;2022-09-01T02:28:54;26.20;96.30
18101;DHT22;9177;49.156;8.142;2022-09-01T02:31:23;26.20;96.30
18101;DHT22;9177;49.156;8.142;2022-09-01T02:33:52;26.20;96.30
18101;DHT22;9177;49.156;8.142;2022-09-01T02:36:21;26.20;96.30
18101;DHT22;9177;49.156;8.142;2022-09-01T02:38:49;26.10;96.30
18101;DHT22;9177;49.156;8.142;2022-09-01T02:41:17;26.10;96.30
18101;DHT22;9177;49.156;8.142;2022-09-01T02:43:46;26.20;96.30
18101;DHT22;9177;49.156;8.142;2022-09-01T02:46:13;26.10;96.30
18101;DHT22;9177;49.156;8.142;2022-09-01T02:48:43;26.10;96.30
18101;DHT22;9177;49.156;8.142;2022-09-01T02:51:12;26.10;96.20
18101;DHT22;9177;49.156;8.142;2022-09-01T02:53:41;26.10;96.30
18101;DHT22;9177;49.156;8.142;2022-09-01T02:56:10;26.20;96.20
18101;DHT22;9177;49.156;8.142;2022-09-01T02:58:40;26.10;96.30
18101;DHT22;9177;49.156;8.142;2022-09-01T03:01:11;26.20;96.30
18101;DHT22;9177;49.156;8.142;2022-09-01T03:03:42;26.10;96.20
18101;DHT22;9177;49.156;8.142;2022-09-01T03:06:10;26.10;96.30
18101;DHT22;9177;49.156;8.142;2022-09-01T03:08:39;26.10;96.40
18101;DHT22;9177;49.156;8.142;2022-09-01T03:11:13;26.10;96.40
18101;DHT22;9177;49.156;8.142;2022-09-01T03:13:42;26.10;96.40
18101;DHT22;9177;49.156;8.142;2022-09-01T03:16:13;26.10;96.50
18101;DHT22;9177;49.156;8.142;2022-09-01T03:18:40;26.10;96.40
18101;DHT22;9177;49.156;8.142;2022-09-01T03:21:09;26.10;96.40
18101;DHT22;9177;49.156;8.142;2022-09-01T03:23:42;26.10;96.40
18101;DHT22;9177;49.156;8.142;2022-09-01T03:26:09;26.10;96.40
18101;DHT22;9177;49.156;8.142;2022-09-01T03:28:36;26.10;96.50
18101;DHT22;9177;49.156;8.142;2022-09-01T03:31:04;26.10;96.50
18101;DHT22;9177;49.156;8.142;2022-09-01T03:33:32;26.10;96.40
18101;DHT22;9177;49.156;8.142;2022-09-01T03:35:59;26.10;96.50
18101;DHT22;9177;49.156;8.142;2022-09-01T03:38:28;26.10;96.50
18101;DHT22;9177;49.156;8.142;2022-09-01T03:40:58;26.10;96.50
18101;DHT22;9177;49.156;8.142;2022-09-01T03:43:27;26.10;96.50
18101;DHT22;9177;49.156;8.142;2022-09-01T03:45:54;26.10;96.50
18101;DHT22;9177;49.156;8.142;2022-09-01T03:48:26;26.10;96.50
18101;DHT22;9177;49.156;8.142;2022-09-01T03:50:54;26.10;96.50
18101;DHT22;9177;49.156;8.142;2022-09-01T03:53:24;26.10;96.40
18101;DHT22;9177;49.156;8.142;2022-09-01T03:55:53;26.10;96.40
18101;DHT22;9177;49.156;8.142;2022-09-01T03:58:23;26.10;96.40
18101;DHT22;9177;49.156;8.142;2022-09-01T04:00:53;26.10;96.50
18101;DHT22;9177;49.156;8.142;2022-09-01T04:03:21;26.10;96.50
18101;DHT22;9177;49.156;8.142;2022-09-01T04:05:49;26.10;96.50
18101;DHT22;9177;49.156;8.142;2022-09-01T04:08:17;26.10;96.50
18101;DHT22;9177;49.156;8.142;2022-09-01T04:10:47;26.10;96.40
18101;DHT22;9177;49.156;8.142;2022-09-01T04:13:17;26.10;96.40
18101;DHT22;9177;49.156;8.142;2022-09-01T04:15:45;26.00;96.50
18101;DHT22;9177;49.156;8.142;2022-09-01T04:18:13;26.00;96.50
18101;DHT22;9177;49.156;8.142;2022-09-01T04:20:46;26.10;96.50
18101;DHT22;9177;49.156;8.142;2022-09-01T04:23:21;26.10;96.50
18101;DHT22;9177;49.156;8.142;2022-09-01T04:25:52;26.00;96.40
18101;DHT22;9177;49.156;8.142;2022-09-01T04:28:23;26.00;96.50
18101;DHT22;9177;49.156;8.142;2022-09-01T04:30:52;26.00;96.50
18101;DHT22;9177;49.156;8.142;2022-09-01T04:33:28;26.00;96.40
18101;DHT22;9177;49.156;8.142;2022-09-01T04:35:59;26.00;96.40
18101;DHT22;9177;49.156;8.142;2022-09-01T04:38:27;26.00;96.50
18101;DHT22;9177;49.156;8.142;2022-09-01T04:40:55;26.00;96.40
18101;DHT22;9177;49.156;8.142;2022-09-01T04:43:23;26.10;96.50
18101;DHT22;9177;49.156;8.142;2022-09-01T04:45:50;26.00;96.40
18101;DHT22;9177;49.156;8.142;2022-09-01T04:48:19;26.00;96.50
18101;DHT22;9177;49.156;8.142;2022-09-01T04:50:48;26.00;96.40
18101;DHT22;9177;49.156;8.142;2022-09-01T04:53:16;26.00;96.50
18101;DHT22;9177;49.156;8.142;2022-09-01T04:55:45;26.00;96.50
18101;DHT22;9177;49.156;8.142;2022-09-01T04:58:15;26.00;96.50
18101;DHT22;9177;49.156;8.142;2022-09-01T05:00:44;26.00;96.50
18101;DHT22;9177;49.156;8.142;2022-09-01T05:03:13;26.00;96.40
18101;DHT22;9177;49.156;8.142;2022-09-01T05:05:48;26.00;96.40
18101;DHT22;9177;49.156;8.142;2022-09-01T05:08:17;26.00;96.40
18101;DHT22;9177;49.156;8.142;2022-09-01T05:10:48;26.00;96.40
18101;DHT22;9177;49.156;8.142;2022-09-01T05:13:19;26.00;96.50
18101;DHT22;9177;49.156;8.142;2022-09-01T05:15:59;26.00;96.50
18101;DHT22;9177;49.156;8.142;2022-09-01T05:18:27;26.00;96.40
18101;DHT22;9177;49.156;8.142;2022-09-01T05:20:55;26.00;96.40
18101;DHT22;9177;49.156;8.142;2022-09-01T05:23:22;26.00;96.40
18101;DHT22;9177;49.156;8.142;2022-09-01T05:25:51;26.00;96.40
18101;DHT22;9177;49.156;8.142;2022-09-01T05:28:19;26.00;96.40
18101;DHT22;9177;49.156;8.142;2022-09-01T05:30:50;26.00;96.40
18101;DHT22;9177;49.156;8.142;2022-09-01T05:33:19;26.00;96.40
18101;DHT22;9177;49.156;8.142;2022-09-01T05:35:52;26.00;96.40
18101;DHT22;9177;49.156;8.142;2022-09-01T05:38:21;26.00;96.40
18101;DHT22;9177;49.156;8.142;2022-09-01T05:41:00;26.00;96.40
18101;DHT22;9177;49.156;8.142;2022-09-01T05:43:28;26.00;96.80
18101;DHT22;9177;49.156;8.142;2022-09-01T05:45:56;26.00;96.40
18101;DHT22;9177;49.156;8.142;2022-09-01T05:48:23;26.00;96.40
18101;DHT22;9177;49.156;8.142;2022-09-01T05:50:50;26.00;96.40
18101;DHT22;9177;49.156;8.142;2022-09-01T05:53:22;26.00;96.40
18101;DHT22;9177;49.156;8.142;2022-09-01T05:55:50;26.00;96.40
18101;DHT22;9177;49.156;8.142;2022-09-01T05:58:23;26.00;96.40
18101;DHT22;9177;49.156;8.142;2022-09-01T06:00:51;26.00;96.40
18101;DHT22;9177;49.156;8.142;2022-09-01T06:03:20;26.00;96.40
18101;DHT22;9177;49.156;8.142;2022-09-01T06:05:49;26.00;96.40
18101;DHT22;9177;49.156;8.142;2022-09-01T06:08:19;26.00;96.40
18101;DHT22;9177;49.156;8.142;2022-09-01T06:10:47;26.00;96.50
18101;DHT22;9177;49.156;8.142;2022-09-01T06:13:15;26.00;96.40
18101;DHT22;9177;49.156;8.142;2022-09-01T06:15:47;26.00;96.40
18101;DHT22;9177;49.156;8.142;2022-09-01T06:18:16;26.00;96.40
18101;DHT22;9177;49.156;8.142;2022-09-01T06:20:45;26.00;96.40
18101;DHT22;9177;49.156;8.142;2022-09-01T06:23:13;26.00;96.40
18101;DHT22;9177;49.156;8.142;2022-09-01T06:25:42;26.00;96.50
18101;DHT22;9177;49.156;8.142;2022-09-01T06:28:12;26.00;96.50
18101;DHT22;9177;49.156;8.142;2022-09-01T06:30:40;26.00;96.50
18101;DHT22;9177;49.156;8.142;2022-09-01T06:33:07;26.00;96.50
18101;DHT22;9177;49.156;8.142;2022-09-01T06:35:35;26.00;96.40
18101;DHT22;9177;49.156;8.142;2022-09-01T06:38:03;26.00;96.50
18101;DHT22;9177;49.156;8.142;2022-09-01T06:40:32;26.00;96.50
18101;DHT22;9177;49.156;8.142;2022-09-01T06:43:00;26.00;96.50
18101;DHT22;9177;49.156;8.142;2022-09-01T06:45:38;26.00;96.50
18101;DHT22;9177;49.156;8.142;2022-09-01T06:48:06;26.00;96.50
18101;DHT22;9177;49.156;8.142;2022-09-01T06:50:33;26.00;96.50
18101;DHT22;9177;49.156;8.142;2022-09-01T06:53:02;26.00;96.50
18101;DHT22;9177;49.156;8.142;2022-09-01T06:55:35;26.00;96.50
18101;DHT22;9177;49.156;8.142;2022-09-01T06:58:02;26.00;96.50
18101;DHT22;9177;49.156;8.142;2022-09-01T07:00:36;26.00;96.50
18101;DHT22;9177;49.156;8.142;2022-09-01T07:03:07;26.00;96.50
18101;DHT22;9177;49.156;8.142;2022-09-01T07:05:38;26.00;96.50
18101;DHT22;9177;49.156;8.142;2022-09-01T07:08:06;26.00;96.50
18101;DHT22;9177;49.156;8.142;2022-09-01T07:10:40;26.00;96.50
18101;DHT22;9177;49.156;8.142;2022-09-01T07:13:11;26.00;96.50
18101;DHT22;9177;49.156;8.142;2022-09-01T07:15:50;26.00;96.50
18101;DHT22;9177;49.156;8.142;2022-09-01T07:18:23;26.00;96.50
18101;DHT22;9177;49.156;8.142;2022-09-01T07:20:51;26.00;96.50
18101;DHT22;9177;49.156;8.142;2022-09-01T07:23:18;26.00;96.40
18101;DHT22;9177;49.156;8.142;2022-09-01T07:25:50;26.00;96.80
18101;DHT22;9177;49.156;8.142;2022-09-01T07:28:21;26.00;96.40
18101;DHT22;9177;49.156;8.142;2022-09-01T07:30:51;26.00;96.40
18101;DHT22;9177;49.156;8.142;2022-09-01T07:33:20;26.00;96.40
18101;DHT22;9177;49.156;8.142;2022-09-01T07:35:53;26.10;96.40
18101;DHT22;9177;49.156;8.142;2022-09-01T07:38:25;26.10;96.30
18101;DHT22;9177;49.156;8.142;2022-09-01T07:40:53;26.20;96.30
18101;DHT22;9177;49.156;8.142;2022-09-01T07:43:22;26.20;96.30
18101;DHT22;9177;49.156;8.142;2022-09-01T07:45:54;26.20;96.30
18101;DHT22;9177;49.156;8.142;2022-09-01T07:48:26;25.60;96.80
18101;DHT22;9177;49.156;8.142;2022-09-01T07:50:54;25.00;97.60
18101;DHT22;9177;49.156;8.142;2022-09-01T07:53:23;24.80;98.00
18101;DHT22;9177;49.156;8.142;2022-09-01T07:55:52;24.40;98.50
18101;DHT22;9177;49.156;8.142;2022-09-01T07:58:21;24.20;98.90
18101;DHT22;9177;49.156;8.142;2022-09-01T08:00:53;24.10;99.20
18101;DHT22;9177;49.156;8.142;2022-09-01T08:03:28;24.20;99.10
18101;DHT22;9177;49.156;8.142;2022-09-01T08:06:00;24.30;99.00
18101;DHT22;9177;49.156;8.142;2022-09-01T08:08:30;24.40;99.00
18101;DHT22;9177;49.156;8.142;2022-09-01T08:10:58;24.30;99.20
18101;DHT22;9177;49.156;8.142;2022-09-01T08:13:24;24.50;99.10
18101;DHT22;9177;49.156;8.142;2022-09-01T08:15:53;24.40;99.10
18101;DHT22;9177;49.156;8.142;2022-09-01T08:18:20;24.20;99.50
18101;DHT22;9177;49.156;8.142;2022-09-01T08:20:47;24.10;99.60
18101;DHT22;9177;49.156;8.142;2022-09-01T08:23:16;24.20;99.50
18101;DHT22;9177;49.156;8.142;2022-09-01T08:25:45;24.20;99.60
18101;DHT22;9177;49.156;8.142;2022-09-01T08:28:17;24.40;99.50
18101;DHT22;9177;49.156;8.142;2022-09-01T08:30:48;24.20;99.80
18101;DHT22;9177;49.156;8.142;2022-09-01T08:33:16;24.20;99.90
18101;DHT22;9177;49.156;8.142;2022-09-01T08:35:46;24.10;99.90
18101;DHT22;9177;49.156;8.142;2022-09-01T08:38:14;24.10;99.90
18101;DHT22;9177;49.156;8.142;2022-09-01T08:40:42;24.10;99.90
18101;DHT22;9177;49.156;8.142;2022-09-01T08:43:21;24.30;99.90
18101;DHT22;9177;49.156;8.142;2022-09-01T08:45:53;24.30;99.90
18101;DHT22;9177;49.156;8.142;2022-09-01T08:48:24;24.30;99.90
18101;DHT22;9177;49.156;8.142;2022-09-01T08:51:02;24.20;99.90
18101;DHT22;9177;49.156;8.142;2022-09-01T08:53:36;24.10;99.90
18101;DHT22;9177;49.156;8.142;2022-09-01T08:56:08;24.20;99.90
18101;DHT22;9177;49.156;8.142;2022-09-01T08:58:37;24.20;99.90
18101;DHT22;9177;49.156;8.142;2022-09-01T09:01:10;24.10;99.90
18101;DHT22;9177;49.156;8.142;2022-09-01T09:04:01;24.30;99.90
18101;DHT22;9177;49.156;8.142;2022-09-01T09:06:35;24.10;99.90
18101;DHT22;9177;49.156;8.142;2022-09-01T09:09:07;24.10;99.90
18101;DHT22;9177;49.156;8.142;2022-09-01T09:11:56;24.00;99.90
18101;DHT22;9177;49.156;8.142;2022-09-01T09:14:43;23.90;99.90
18101;DHT22;9177;49.156;8.142;2022-09-01T09:17:15;24.00;99.90
18101;DHT22;9177;49.156;8.142;2022-09-01T09:19:47;24.00;99.90
18101;DHT22;9177;49.156;8.142;2022-09-01T09:22:16;23.90;99.90
18101;DHT22;9177;49.156;8.142;2022-09-01T09:24:47;24.10;99.90
18101;DHT22;9177;49.156;8.142;2022-09-01T09:27:18;24.10;99.90
18101;DHT22;9177;49.156;8.142;2022-09-01T09:29:54;24.20;99.90
18101;DHT22;9177;49.156;8.142;2022-09-01T09:32:23;24.10;99.90
18101;DHT22;9177;49.156;8.142;2022-09-01T09:34:52;24.20;99.90
18101;DHT22;9177;49.156;8.142;2022-09-01T09:37:22;24.30;99.90
18101;DHT22;9177;49.156;8.142;2022-09-01T09:40:05;24.20;99.90
18101;DHT22;9177;49.156;8.142;2022-09-01T09:42:32;24.30;99.90
18101;DHT22;9177;49.156;8.142;2022-09-01T09:45:00;24.30;99.90
18101;DHT22;9177;49.156;8.142;2022-09-01T09:47:38;24.40;99.90
18101;DHT22;9177;49.156;8.142;2022-09-01T09:50:22;24.40;99.90
18101;DHT22;9177;49.156;8.142;2022-09-01T09:52:52;24.30;99.90
18101;DHT22;9177;49.156;8.142;2022-09-01T09:55:23;24.20;99.90
18101;DHT22;9177;49.156;8.142;2022-09-01T09:57:54;24.40;99.90
18101;DHT22;9177;49.156;8.142;2022-09-01T10:00:24;24.40;99.90
18101;DHT22;9177;49.156;8.142;2022-09-01T10:02:56;24.60;99.90
18101;DHT22;9177;49.156;8.142;2022-09-01T10:05:38;24.50;99.90
18101;DHT22;9177;49.156;8.142;2022-09-01T10:08:08;24.20;99.90
18101;DHT22;9177;49.156;8.142;2022-09-01T10:10:41;24.30;99.90
18101;DHT22;9177;49.156;8.142;2022-09-01T10:13:11;24.50;99.90
18101;DHT22;9177;49.156;8.142;2022-09-01T10:15:40;24.60;99.80
18101;DHT22;9177;49.156;8.142;2022-09-01T10:18:13;24.60;99.80
18101;DHT22;9177;49.156;8.142;2022-09-01T10:20:46;24.60;99.40
18101;DHT22;9177;49.156;8.142;2022-09-01T10:23:14;24.80;99.20
18101;DHT22;9177;49.156;8.142;2022-09-01T10:25:42;24.80;99.20
18101;DHT22;9177;49.156;8.142;2022-09-01T10:28:13;24.60;99.40
18101;DHT22;9177;49.156;8.142;2022-09-01T10:30:43;24.60;99.40
18101;DHT22;9177;49.156;8.142;2022-09-01T10:33:14;24.60;99.30
18101;DHT22;9177;49.156;8.142;2022-09-01T10:35:51;24.60;99.40
18101;DHT22;9177;49.156;8.142;2022-09-01T10:38:21;24.60;99.40
18101;DHT22;9177;49.156;8.142;2022-09-01T10:40:50;24.50;99.40
18101;DHT22;9177;49.156;8.142;2022-09-01T10:43:38;24.50;99.50
18101;DHT22;9177;49.156;8.142;2022-09-01T10:46:09;24.80;99.10
18101;DHT22;9177;49.156;8.142;2022-09-01T10:48:37;25.10;98.70
18101;DHT22;9177;49.156;8.142;2022-09-01T10:51:42;25.30;98.50
18101;DHT22;9177;49.156;8.142;2022-09-01T10:57:41;25.60;98.00
18101;DHT22;9177;49.156;8.142;2022-09-01T11:00:44;25.70;97.90
18101;DHT22;9177;49.156;8.142;2022-09-01T11:03:32;25.70;97.90
18101;DHT22;9177;49.156;8.142;2022-09-01T11:05:59;25.70;97.80
18101;DHT22;9177;49.156;8.142;2022-09-01T11:08:43;25.80;97.80
18101;DHT22;9177;49.156;8.142;2022-09-01T11:11:22;25.80;98.00
18101;DHT22;9177;49.156;8.142;2022-09-01T11:13:53;25.80;98.10
18101;DHT22;9177;49.156;8.142;2022-09-01T11:16:34;25.80;98.10
18101;DHT22;9177;49.156;8.142;2022-09-01T11:19:33;25.80;98.00
18101;DHT22;9177;49.156;8.142;2022-09-01T11:28:00;26.00;98.00
18101;DHT22;9177;49.156;8.142;2022-09-01T11:30:39;26.00;98.00
18101;DHT22;9177;49.156;8.142;2022-09-01T11:33:42;26.00;98.00
18101;DHT22;9177;49.156;8.142;2022-09-01T11:36:15;26.00;98.00
18101;DHT22;9177;49.156;8.142;2022-09-01T11:38:49;26.00;97.90
18101;DHT22;9177;49.156;8.142;2022-09-01T11:41:22;26.10;97.80
18101;DHT22;9177;49.156;8.142;2022-09-01T11:43:53;26.10;97.80
18101;DHT22;9177;49.156;8.142;2022-09-01T11:46:25;26.20;97.70
18101;DHT22;9177;49.156;8.142;2022-09-01T11:48:54;26.20;97.70
18101;DHT22;9177;49.156;8.142;2022-09-01T11:51:22;26.30;97.60
18101;DHT22;9177;49.156;8.142;2022-09-01T11:53:49;26.30;97.50
18101;DHT22;9177;49.156;8.142;2022-09-01T11:56:25;26.30;97.40
18101;DHT22;9177;49.156;8.142;2022-09-01T11:58:52;26.30;97.30
18101;DHT22;9177;49.156;8.142;2022-09-01T12:01:21;26.40;97.30
18101;DHT22;9177;49.156;8.142;2022-09-01T12:03:50;26.40;97.30
18101;DHT22;9177;49.156;8.142;2022-09-01T12:06:20;26.40;97.10
18101;DHT22;9177;49.156;8.142;2022-09-01T12:08:57;26.40;97.30
18101;DHT22;9177;49.156;8.142;2022-09-01T12:11:28;26.40;97.40
18101;DHT22;9177;49.156;8.142;2022-09-01T12:13:58;26.40;97.30
18101;DHT22;9177;49.156;8.142;2022-09-01T12:16:26;26.50;97.30
18101;DHT22;9177;49.156;8.142;2022-09-01T12:18:56;26.60;97.20
18101;DHT22;9177;49.156;8.142;2022-09-01T12:21:25;26.60;97.10
18101;DHT22;9177;49.156;8.142;2022-09-01T12:24:10;26.70;97.10
18101;DHT22;9177;49.156;8.142;2022-09-01T12:26:40;26.80;97.00
18101;DHT22;9177;49.156;8.142;2022-09-01T12:29:07;26.80;96.90
18101;DHT22;9177;49.156;8.142;2022-09-01T12:31:43;26.90;96.80
18101;DHT22;9177;49.156;8.142;2022-09-01T12:34:24;26.90;96.80
18101;DHT22;9177;49.156;8.142;2022-09-01T12:37:07;26.90;96.80
18101;DHT22;9177;49.156;8.142;2022-09-01T12:39:37;27.00;96.80
18101;DHT22;9177;49.156;8.142;2022-09-01T12:42:11;27.00;96.80
18101;DHT22;9177;49.156;8.142;2022-09-01T12:44:46;27.00;96.70
18101;DHT22;9177;49.156;8.142;2022-09-01T12:47:43;27.00;96.70
18101;DHT22;9177;49.156;8.142;2022-09-01T12:50:34;27.10;96.70
18101;DHT22;9177;49.156;8.142;2022-09-01T12:53:02;27.10;96.70
18101;DHT22;9177;49.156;8.142;2022-09-01T12:55:31;27.20;96.60
18101;DHT22;9177;49.156;8.142;2022-09-01T12:58:01;27.20;96.60
18101;DHT22;9177;49.156;8.142;2022-09-01T13:00:30;27.30;96.60
18101;DHT22;9177;49.156;8.142;2022-09-01T13:03:07;27.30;96.60
18101;DHT22;9177;49.156;8.142;2022-09-01T13:05:39;27.30;96.50
18101;DHT22;9177;49.156;8.142;2022-09-01T13:08:08;27.20;96.60
18101;DHT22;9177;49.156;8.142;2022-09-01T13:10:38;27.10;96.70
18101;DHT22;9177;49.156;8.142;2022-09-01T13:13:08;27.00;96.70
18101;DHT22;9177;49.156;8.142;2022-09-01T13:15:37;26.90;96.80
18101;DHT22;9177;49.156;8.142;2022-09-01T13:18:04;26.80;96.80
18101;DHT22;9177;49.156;8.142;2022-09-01T13:20:32;26.80;96.90
18101;DHT22;9177;49.156;8.142;2022-09-01T13:22:58;26.80;96.90
18101;DHT22;9177;49.156;8.142;2022-09-01T13:25:25;26.90;96.90
18101;DHT22;9177;49.156;8.142;2022-09-01T13:27:53;27.00;96.90
18101;DHT22;9177;49.156;8.142;2022-09-01T13:30:23;27.00;96.90
18101;DHT22;9177;49.156;8.142;2022-09-01T13:32:53;27.10;96.80
18101;DHT22;9177;49.156;8.142;2022-09-01T13:35:21;27.20;96.80
18101;DHT22;9177;49.156;8.142;2022-09-01T13:37:49;27.20;96.70
18101;DHT22;9177;49.156;8.142;2022-09-01T13:40:20;27.30;96.70
18101;DHT22;9177;49.156;8.142;2022-09-01T13:42:49;27.30;96.60
18101;DHT22;9177;49.156;8.142;2022-09-01T13:45:18;27.40;96.60
18101;DHT22;9177;49.156;8.142;2022-09-01T13:47:51;27.40;96.50
18101;DHT22;9177;49.156;8.142;2022-09-01T13:50:20;27.50;96.50
18101;DHT22;9177;49.156;8.142;2022-09-01T13:52:50;27.50;96.40
18101;DHT22;9177;49.156;8.142;2022-09-01T13:55:20;27.50;96.40
18101;DHT22;9177;49.156;8.142;2022-09-01T13:57:50;27.60;96.40
18101;DHT22;9177;49.156;8.142;2022-09-01T14:00:19;27.60;96.40
18101;DHT22;9177;49.156;8.142;2022-09-01T14:02:53;27.60;96.30
18101;DHT22;9177;49.156;8.142;2022-09-01T14:05:23;27.60;96.30
18101;DHT22;9177;49.156;8.142;2022-09-01T14:07:51;27.60;96.30
18101;DHT22;9177;49.156;8.142;2022-09-01T14:10:20;27.60;96.40
18101;DHT22;9177;49.156;8.142;2022-09-01T14:12:49;27.50;96.30
18101;DHT22;9177;49.156;8.142;2022-09-01T14:15:18;27.40;96.40
18101;DHT22;9177;49.156;8.142;2022-09-01T14:17:48;27.40;96.50
18101;DHT22;9177;49.156;8.142;2022-09-01T14:20:18;27.30;96.50
18101;DHT22;9177;49.156;8.142;2022-09-01T14:22:47;27.30;96.50
18101;DHT22;9177;49.156;8.142;2022-09-01T14:25:15;27.30;96.40
18101;DHT22;9177;49.156;8.142;2022-09-01T14:27:43;27.40;96.50
18101;DHT22;9177;49.156;8.142;2022-09-01T14:30:14;27.40;96.40
18101;DHT22;9177;49.156;8.142;2022-09-01T14:32:41;27.50;96.40
18101;DHT22;9177;49.156;8.142;2022-09-01T14:35:08;27.60;96.40
18101;DHT22;9177;49.156;8.142;2022-09-01T14:37:37;27.60;96.70
18101;DHT22;9177;49.156;8.142;2022-09-01T14:40:06;27.60;96.30
18101;DHT22;9177;49.156;8.142;2022-09-01T14:42:34;27.70;96.30
18101;DHT22;9177;49.156;8.142;2022-09-01T14:45:02;27.70;96.30
18101;DHT22;9177;49.156;8.142;2022-09-01T14:47:29;27.70;96.20
18101;DHT22;9177;49.156;8.142;2022-09-01T14:50:01;27.70;96.20
18101;DHT22;9177;49.156;8.142;2022-09-01T14:52:28;27.70;96.30
18101;DHT22;9177;49.156;8.142;2022-09-01T14:54:58;27.70;96.30
18101;DHT22;9177;49.156;8.142;2022-09-01T14:57:25;27.70;96.30
18101;DHT22;9177;49.156;8.142;2022-09-01T14:59:52;27.70;96.30
18101;DHT22;9177;49.156;8.142;2022-09-01T15:02:19;27.70;96.30
18101;DHT22;9177;49.156;8.142;2022-09-01T15:04:49;27.70;96.20
18101;DHT22;9177;49.156;8.142;2022-09-01T15:07:17;27.70;96.20
18101;DHT22;9177;49.156;8.142;2022-09-01T15:09:44;27.80;96.20
18101;DHT22;9177;49.156;8.142;2022-09-01T15:12:13;27.70;96.20
18101;DHT22;9177;49.156;8.142;2022-09-01T15:14:40;27.80;96.20
18101;DHT22;9177;49.156;8.142;2022-09-01T15:17:07;27.70;96.10
18101;DHT22;9177;49.156;8.142;2022-09-01T15:19:34;27.80;96.20
18101;DHT22;9177;49.156;8.142;2022-09-01T15:22:01;27.70;96.20
18101;DHT22;9177;49.156;8.142;2022-09-01T15:24:29;27.70;96.20
18101;DHT22;9177;49.156;8.142;2022-09-01T15:26:56;27.70;96.20
18101;DHT22;9177;49.156;8.142;2022-09-01T15:29:24;27.70;96.20
18101;DHT22;9177;49.156;8.142;2022-09-01T15:31:52;27.70;96.20
18101;DHT22;9177;49.156;8.142;2022-09-01T15:34:20;27.60;96.20
18101;DHT22;9177;49.156;8.142;2022-09-01T15:36:47;27.60;96.20
18101;DHT22;9177;49.156;8.142;2022-09-01T15:39:14;27.60;96.20
18101;DHT22;9177;49.156;8.142;2022-09-01T15:41:43;27.60;96.20
18101;DHT22;9177;49.156;8.142;2022-09-01T15:44:10;27.50;96.20
18101;DHT22;9177;49.156;8.142;2022-09-01T15:46:38;27.50;96.20
18101;DHT22;9177;49.156;8.142;2022-09-01T15:49:09;27.50;96.30
18101;DHT22;9177;49.156;8.142;2022-09-01T15:51:37;27.40;96.30
18101;DHT22;9177;49.156;8.142;2022-09-01T15:54:07;27.40;96.30
18101;DHT22;9177;49.156;8.142;2022-09-01T15:56:34;27.40;96.70
18101;DHT22;9177;49.156;8.142;2022-09-01T15:59:03;27.30;96.30
18101;DHT22;9177;49.156;8.142;2022-09-01T16:01:32;27.30;96.40
18101;DHT22;9177;49.156;8.142;2022-09-01T16:04:03;27.30;96.40
18101;DHT22;9177;49.156;8.142;2022-09-01T16:06:30;27.30;96.50
18101;DHT22;9177;49.156;8.142;2022-09-01T16:08:57;27.20;96.50
18101;DHT22;9177;49.156;8.142;2022-09-01T16:11:25;27.20;96.50
18101;DHT22;9177;49.156;8.142;2022-09-01T16:13:53;27.20;96.50
18101;DHT22;9177;49.156;8.142;2022-09-01T16:16:30;27.20;96.60